createdAt,value
2023-02-27T00:00:42.605Z,102752.81
2023-02-27T00:03:10.532Z,102752.72
2023-02-27T00:05:41.323Z,102757.22
2023-02-27T00:08:09.604Z,102764.31
2023-02-27T00:10:37.570Z,102758.06
2023-02-27T00:13:05.460Z,102759.88
2023-02-27T00:15:33.499Z,102754.59
2023-02-27T00:18:02.804Z,102756.44
2023-02-27T00:20:32.244Z,102773.31
2023-02-27T00:23:00.208Z,102762.72
2023-02-27T00:25:28.120Z,102759.13
2023-02-27T00:27:56.864Z,102771.53
2023-02-27T00:30:26.529Z,102768.88
2023-02-27T00:32:54.628Z,102772.38
2023-02-27T00:35:23.930Z,102769.66
2023-02-27T00:37:51.894Z,102765.13
2023-02-27T00:40:19.924Z,102771.47
2023-02-27T00:42:48.719Z,102763.50
2023-02-27T00:45:16.698Z,102767.78
2023-02-27T00:47:44.589Z,102770.47
2023-02-27T00:50:13.295Z,102772.22
2023-02-27T00:52:42.620Z,102766.03
2023-02-27T00:55:11.354Z,102768.81
2023-02-27T00:57:40.458Z,102771.34
2023-02-27T01:00:11.154Z,102774.00
2023-02-27T01:02:39.145Z,102764.34
2023-02-27T01:05:07.872Z,102766.22
2023-02-27T01:07:37.250Z,102766.22
2023-02-27T01:10:07.716Z,102769.50
2023-02-27T01:12:35.713Z,102771.34
2023-02-27T01:15:03.829Z,102764.53
2023-02-27T01:17:31.861Z,102772.41
2023-02-27T01:19:59.794Z,102767.03
2023-02-27T01:22:27.765Z,102768.00
2023-02-27T01:24:55.652Z,102761.69
2023-02-27T01:27:24.966Z,102762.53
2023-02-27T01:29:52.974Z,102751.09
2023-02-27T01:32:20.972Z,102752.00
2023-02-27T01:34:49.228Z,102758.19
2023-02-27T01:37:17.188Z,102756.44
2023-02-27T01:39:45.224Z,102757.34
2023-02-27T01:42:21.185Z,102758.31
2023-02-27T01:45:27.075Z,102751.19
2023-02-27T01:48:01.023Z,102751.28
2023-02-27T01:50:29.099Z,102758.34
2023-02-27T01:52:59.485Z,102753.06
2023-02-27T01:55:29.615Z,102757.53
2023-02-27T01:57:58.337Z,102766.44
2023-02-27T02:00:28.190Z,102763.84
2023-02-27T02:03:02.537Z,102759.47
2023-02-27T02:05:31.409Z,102774.50
2023-02-27T02:07:59.679Z,102763.06
2023-02-27T02:10:27.844Z,102766.59
2023-02-27T02:12:55.980Z,102769.25
2023-02-27T02:15:30.531Z,102767.47
2023-02-27T02:18:05.436Z,102772.78
2023-02-27T02:21:18.160Z,102775.38
2023-02-27T02:24:28.570Z,102775.38
2023-02-27T02:27:04.481Z,102778.97
2023-02-27T02:29:59.603Z,102779.84
2023-02-27T02:33:18.144Z,102777.19
2023-02-27T02:36:17.549Z,102784.25
2023-02-27T02:39:03.115Z,102785.19
2023-02-27T02:41:38.541Z,102786.03
2023-02-27T02:44:09.712Z,102785.16
2023-02-27T02:46:43.367Z,102784.25
2023-02-27T02:49:16.523Z,102781.63
2023-02-27T02:51:50.020Z,102780.75
2023-02-27T02:54:22.361Z,102774.53
2023-02-27T02:56:51.887Z,102779.81
2023-02-27T02:59:24.408Z,102776.25
2023-02-27T03:01:55.079Z,102779.75
2023-02-27T03:04:27.924Z,102772.69
2023-02-27T03:07:00.924Z,102773.56
2023-02-27T03:09:33.584Z,102773.50
2023-02-27T03:12:04.418Z,102775.34
2023-02-27T03:14:36.167Z,102778.13
2023-02-27T03:17:06.853Z,102787.84
2023-02-27T03:19:37.847Z,102788.72
2023-02-27T03:22:07.489Z,102786.06
2023-02-27T03:24:39.999Z,102788.66
2023-02-27T03:27:08.821Z,102783.28
2023-02-27T03:29:40.565Z,102793.97
2023-02-27T03:32:12.352Z,102796.66
2023-02-27T03:34:41.622Z,102805.50
2023-02-27T03:37:21.787Z,102802.81
2023-02-27T03:39:52.725Z,102803.72
2023-02-27T03:42:27.760Z,102802.84
2023-02-27T03:45:01.711Z,102796.69
2023-02-27T03:47:29.992Z,102806.41
2023-02-27T03:49:57.928Z,102805.50
2023-02-27T03:52:27.563Z,102818.72
2023-02-27T03:54:59.969Z,102808.16
2023-02-27T03:57:28.460Z,102815.22
2023-02-27T03:59:56.592Z,102813.44
2023-02-27T04:02:24.548Z,102824.06
2023-02-27T04:04:52.438Z,102816.97
2023-02-27T04:07:26.336Z,102825.81
2023-02-27T04:10:29.095Z,102820.53
2023-02-27T04:13:18.443Z,102831.16
2023-02-27T04:16:00.847Z,102838.25
2023-02-27T04:18:40.779Z,102823.19
2023-02-27T04:21:12.309Z,102841.78
2023-02-27T04:23:42.761Z,102838.22
2023-02-27T04:26:22.849Z,102842.66
2023-02-27T04:28:59.255Z,102850.63
2023-02-27T04:31:32.358Z,102853.28
2023-02-27T04:34:02.624Z,102861.25
2023-02-27T04:36:34.726Z,102866.53
2023-02-27T04:39:06.185Z,102867.41
2023-02-27T04:41:38.787Z,102866.53
2023-02-27T04:44:09.519Z,102875.34
2023-02-27T04:46:38.855Z,102870.94
2023-02-27T04:49:10.546Z,102873.59
2023-02-27T04:51:45.544Z,102875.38
2023-02-27T04:54:15.178Z,102876.28
2023-02-27T04:56:47.519Z,102873.63
2023-02-27T04:59:18.255Z,102867.44
2023-02-27T05:01:49.656Z,102872.75
2023-02-27T05:04:19.852Z,102873.63
2023-02-27T05:06:48.755Z,102870.94
2023-02-27T05:09:21.959Z,102864.78
2023-02-27T05:11:56.210Z,102870.09
2023-02-27T05:14:27.381Z,102872.72
2023-02-27T05:17:00.091Z,102870.94
2023-02-27T05:19:28.068Z,102871.81
2023-02-27T05:22:01.179Z,102876.25
2023-02-27T05:24:36.864Z,102878.03
2023-02-27T05:27:14.589Z,102881.56
2023-02-27T05:29:46.254Z,102885.13
2023-02-27T05:32:21.448Z,102885.09
2023-02-27T05:34:53.359Z,102887.78
2023-02-27T05:37:24.361Z,102888.66
2023-02-27T05:39:53.601Z,102884.22
2023-02-27T05:42:27.045Z,102896.59
2023-02-27T05:44:58.341Z,102897.50
2023-02-27T05:47:31.128Z,102890.41
2023-02-27T05:50:03.378Z,102890.44
2023-02-27T05:52:32.463Z,102895.72
2023-02-27T05:55:04.076Z,102893.06
2023-02-27T05:57:37.455Z,102889.53
2023-02-27T06:00:10.626Z,102888.63
2023-02-27T06:02:38.607Z,102886.88
2023-02-27T06:05:07.468Z,102887.75
2023-02-27T06:07:36.138Z,102893.09
2023-02-27T06:10:05.654Z,102894.84
2023-02-27T06:12:34.988Z,102889.53
2023-02-27T06:15:02.874Z,102901.91
2023-02-27T06:17:30.805Z,102900.13
2023-02-27T06:19:58.717Z,102904.56
2023-02-27T06:22:26.612Z,102904.56
2023-02-27T06:24:54.505Z,102902.81
2023-02-27T06:27:22.443Z,102912.53
2023-02-27T06:29:51.686Z,102920.50
2023-02-27T06:32:19.645Z,102916.97
2023-02-27T06:34:47.592Z,102927.56
2023-02-27T06:37:15.488Z,102929.34
2023-02-27T06:39:43.405Z,102931.13
2023-02-27T06:42:11.309Z,102928.44
2023-02-27T06:44:39.205Z,102925.78
2023-02-27T06:47:08.544Z,102933.78
2023-02-27T06:49:36.444Z,102931.97
2023-02-27T06:52:04.361Z,102932.00
2023-02-27T06:54:32.254Z,102938.19
2023-02-27T06:57:00.208Z,102934.63
2023-02-27T06:59:28.159Z,102938.19
2023-02-27T07:01:56.334Z,102950.56
2023-02-27T07:04:25.700Z,102941.72
2023-02-27T07:07:35.977Z,102947.91
2023-02-27T07:09:41.980Z,102954.09
2023-02-27T07:12:10.134Z,102953.22
2023-02-27T07:14:38.198Z,102961.19
2023-02-27T07:17:06.123Z,102966.47
2023-02-27T07:19:36.029Z,102972.66
2023-02-27T07:22:04.376Z,102980.63
2023-02-27T07:24:32.347Z,102984.09
2023-02-27T07:27:00.258Z,102991.13
2023-02-27T07:29:28.398Z,102991.13
2023-02-27T07:31:56.383Z,102997.34
2023-02-27T07:34:24.303Z,103001.81
2023-02-27T07:36:53.604Z,102993.88
2023-02-27T07:39:21.527Z,103002.72
2023-02-27T07:41:49.428Z,102998.25
2023-02-27T07:44:17.377Z,103000.06
2023-02-27T07:46:47.404Z,102983.22
2023-02-27T07:49:15.504Z,102987.66
2023-02-27T07:51:43.898Z,102995.59
2023-02-27T07:54:13.186Z,102995.59
2023-02-27T07:56:41.063Z,103000.91
2023-02-27T07:59:09.017Z,103005.31
2023-02-27T08:01:37.034Z,103003.50
2023-02-27T08:04:04.960Z,103011.44
2023-02-27T08:06:32.857Z,103008.75
2023-02-27T08:09:00.762Z,102997.19
2023-02-27T08:11:30.180Z,103013.16
2023-02-27T08:14:01.077Z,103000.72
2023-02-27T08:16:30.780Z,102997.97
2023-02-27T08:18:59.047Z,103000.63
2023-02-27T08:21:27.574Z,102989.06
2023-02-27T08:23:55.728Z,102986.34
2023-02-27T08:26:23.893Z,102992.53
2023-02-27T08:28:56.041Z,102990.69
2023-02-27T08:31:24.682Z,102982.69
2023-02-27T08:34:01.002Z,102985.31
2023-02-27T08:36:37.972Z,102983.50
2023-02-27T08:39:06.017Z,102983.41
2023-02-27T08:41:34.300Z,102981.59
2023-02-27T08:44:03.806Z,102984.09
2023-02-27T08:46:31.911Z,102985.66
2023-02-27T08:48:59.873Z,102987.44
2023-02-27T08:51:28.137Z,102984.94
2023-02-27T08:53:59.168Z,102989.31
2023-02-27T08:56:27.560Z,102987.34
2023-02-27T08:58:56.138Z,102993.63
2023-02-27T09:01:27.477Z,102990.94
2023-02-27T09:03:55.646Z,102994.97
2023-02-27T09:06:25.906Z,102996.00
2023-02-27T09:08:54.196Z,103002.84
2023-02-27T09:11:22.132Z,102998.22
2023-02-27T09:13:51.486Z,102998.28
2023-02-27T09:16:19.732Z,102991.31
2023-02-27T09:18:49.584Z,102995.09
2023-02-27T09:21:17.815Z,102983.88
2023-02-27T09:23:45.754Z,102985.72
2023-02-27T09:26:13.989Z,102988.66
2023-02-27T09:28:41.910Z,102984.38
2023-02-27T09:31:10.228Z,102989.44
2023-02-27T09:33:39.406Z,102989.63
2023-02-27T09:36:09.724Z,102989.03
2023-02-27T09:38:40.920Z,102992.38
2023-02-27T09:41:18.486Z,102996.41
2023-02-27T09:43:50.491Z,102992.63
2023-02-27T09:46:20.193Z,102988.81
2023-02-27T09:48:50.960Z,102992.34
2023-02-27T09:51:21.011Z,102995.59
2023-02-27T09:53:52.099Z,102988.47
2023-02-27T09:56:23.837Z,102987.50
2023-02-27T09:58:56.587Z,102979.72
2023-02-27T10:01:27.132Z,102979.63
2023-02-27T10:04:16.244Z,102980.31
2023-02-27T10:06:49.572Z,102965.53
2023-02-27T10:09:26.816Z,102966.16
2023-02-27T10:12:02.936Z,102966.72
2023-02-27T10:14:38.991Z,102961.75
2023-02-27T10:17:11.385Z,102958.94
2023-02-27T10:19:39.891Z,102953.28
2023-02-27T10:22:15.617Z,102960.47
2023-02-27T10:24:47.707Z,102956.22
2023-02-27T10:27:19.225Z,102959.53
2023-02-27T10:29:47.413Z,102957.81
2023-02-27T10:32:19.704Z,102958.88
2023-02-27T10:34:52.230Z,102956.22
2023-02-27T10:37:24.037Z,102960.19
2023-02-27T10:39:55.472Z,102959.53
2023-02-27T10:42:25.701Z,102963.38
2023-02-27T10:44:54.427Z,102958.84
2023-02-27T10:47:23.893Z,102960.06
2023-02-27T10:49:52.399Z,102968.53
2023-02-27T10:52:22.074Z,102961.19
2023-02-27T10:54:50.024Z,102966.78
2023-02-27T10:57:27.400Z,102973.34
2023-02-27T10:59:57.832Z,102971.47
2023-02-27T11:02:28.894Z,102972.22
2023-02-27T11:04:58.432Z,102972.09
2023-02-27T11:07:33.642Z,102977.25
2023-02-27T11:10:04.697Z,102976.28
2023-02-27T11:12:35.168Z,102971.56
2023-02-27T11:15:23.154Z,102971.16
2023-02-27T11:17:51.570Z,102966.03
2023-02-27T11:20:36.955Z,102970.94
2023-02-27T11:23:12.885Z,102965.00
2023-02-27T11:25:40.829Z,102965.13
2023-02-27T11:28:22.315Z,102971.88
2023-02-27T11:30:58.502Z,102973.91
2023-02-27T11:33:27.666Z,102970.25
2023-02-27T11:35:58.471Z,102971.09
2023-02-27T11:38:29.873Z,102974.22
2023-02-27T11:40:59.152Z,102971.09
2023-02-27T11:43:28.715Z,102965.50
2023-02-27T11:46:13.219Z,102967.78
2023-02-27T11:48:50.683Z,102957.81
2023-02-27T11:51:26.508Z,102960.44
2023-02-27T11:54:11.227Z,102966.75
2023-02-27T11:56:43.084Z,102957.38
2023-02-27T11:59:24.037Z,102955.47
2023-02-27T12:01:56.381Z,102959.31
2023-02-27T12:04:28.834Z,102953.53
2023-02-27T12:07:00.693Z,102951.31
2023-02-27T12:09:36.036Z,102944.13
2023-02-27T12:12:09.098Z,102948.03
2023-02-27T12:14:44.270Z,102951.31
2023-02-27T12:17:17.640Z,102939.53
2023-02-27T12:19:57.713Z,102937.47
2023-02-27T12:22:29.209Z,102941.50
2023-02-27T12:25:03.552Z,102936.84
2023-02-27T12:27:39.371Z,102935.53
2023-02-27T12:30:11.688Z,102932.84
2023-02-27T12:32:44.319Z,102931.72
2023-02-27T12:35:16.627Z,102933.50
2023-02-27T12:37:44.872Z,102931.47
2023-02-27T12:40:18.253Z,102922.41
2023-02-27T12:42:56.598Z,102926.16
2023-02-27T12:45:56.287Z,102926.31
2023-02-27T12:48:46.116Z,102915.56
2023-02-27T12:51:45.944Z,102910.28
2023-02-27T12:54:22.634Z,102913.16
2023-02-27T12:57:01.780Z,102911.50
2023-02-27T12:59:49.424Z,102917.31
2023-02-27T13:02:31.679Z,102914.28
2023-02-27T13:05:07.269Z,102913.34
2023-02-27T13:07:38.639Z,102913.81
2023-02-27T13:10:11.809Z,102913.16
2023-02-27T13:12:45.441Z,102906.56
2023-02-27T13:15:17.423Z,102905.16
2023-02-27T13:17:48.624Z,102919.09
2023-02-27T13:20:27.924Z,102910.44
2023-02-27T13:23:01.935Z,102908.78
2023-02-27T13:25:30.989Z,102905.94
2023-02-27T13:28:02.362Z,102896.22
2023-02-27T13:30:34.255Z,102898.88
2023-02-27T13:33:09.233Z,102887.78
2023-02-27T13:35:45.967Z,102897.41
2023-02-27T13:38:35.631Z,102899.00
2023-02-27T13:41:38.529Z,102891.13
2023-02-27T13:44:49.821Z,102897.63
2023-02-27T13:47:44.784Z,102898.16
2023-02-27T13:50:50.621Z,102893.03
2023-02-27T13:53:24.543Z,102889.09
2023-02-27T13:56:00.248Z,102885.38
2023-02-27T13:58:28.334Z,102879.25
2023-02-27T14:01:01.736Z,102898.72
2023-02-27T14:03:32.230Z,102889.56
2023-02-27T14:06:04.199Z,102884.50
2023-02-27T14:08:38.087Z,102880.28
2023-02-27T14:11:16.707Z,102886.47
2023-02-27T14:14:37.424Z,102881.75
2023-02-27T14:17:05.495Z,102868.75
2023-02-27T14:19:56.993Z,102875.97
2023-02-27T14:22:38.837Z,102886.63
2023-02-27T14:25:18.049Z,102887.22
2023-02-27T14:27:56.886Z,102889.63
2023-02-27T14:30:31.335Z,102893.78
2023-02-27T14:33:02.392Z,102893.31
2023-02-27T14:35:31.737Z,102887.19
2023-02-27T14:38:01.512Z,102889.63
2023-02-27T14:40:34.305Z,102886.91
2023-02-27T14:43:08.960Z,102900.50
2023-02-27T14:45:37.004Z,102911.81
2023-02-27T14:48:09.637Z,102899.53
2023-02-27T14:50:41.975Z,102898.94
2023-02-27T14:53:23.405Z,102898.09
2023-02-27T14:55:55.206Z,102913.25
2023-02-27T14:58:24.155Z,102916.41
2023-02-27T15:01:04.468Z,102917.97
2023-02-27T15:03:40.134Z,102926.16
2023-02-27T15:06:18.380Z,102923.38
2023-02-27T15:08:48.887Z,102925.31
2023-02-27T15:11:18.640Z,102916.03
2023-02-27T15:13:48.097Z,102921.16
2023-02-27T15:16:31.044Z,102924.44
2023-02-27T15:19:01.096Z,102930.66
2023-02-27T15:21:32.636Z,102927.78
2023-02-27T15:24:01.759Z,102927.53
2023-02-27T15:26:32.167Z,102922.59
2023-02-27T15:29:00.749Z,102925.19
2023-02-27T15:31:32.094Z,102920.97
2023-02-27T15:34:01.806Z,102933.53
2023-02-27T15:36:33.288Z,102933.53
2023-02-27T15:39:07.858Z,102928.56
2023-02-27T15:41:36.020Z,102932.69
2023-02-27T15:44:04.877Z,102926.91
2023-02-27T15:46:33.333Z,102938.84
2023-02-27T15:49:01.367Z,102937.59
2023-02-27T15:51:31.312Z,102936.19
2023-02-27T15:54:01.300Z,102930.00
2023-02-27T15:56:32.713Z,102935.63
2023-02-27T15:59:01.457Z,102932.47
2023-02-27T16:01:30.888Z,102932.97
2023-02-27T16:04:01.099Z,102936.56
2023-02-27T16:06:32.650Z,102928.78
2023-02-27T16:09:02.644Z,102926.16
2023-02-27T16:11:32.328Z,102931.38
2023-02-27T16:14:00.290Z,102936.25
2023-02-27T16:16:32.697Z,102930.94
2023-02-27T16:19:03.337Z,102927.16
2023-02-27T16:21:33.438Z,102935.03
2023-02-27T16:24:20.825Z,102936.88
2023-02-27T16:26:52.256Z,102944.13
2023-02-27T16:29:21.897Z,102944.34
2023-02-27T16:31:52.483Z,102955.53
2023-02-27T16:34:30.132Z,102953.09
2023-02-27T16:37:06.595Z,102952.97
2023-02-27T16:39:35.091Z,102956.75
2023-02-27T16:42:03.289Z,102957.09
2023-02-27T16:44:31.237Z,102960.94
2023-02-27T16:46:59.702Z,102960.31
2023-02-27T16:49:32.041Z,102964.41
2023-02-27T16:52:03.319Z,102959.34
2023-02-27T16:54:32.611Z,102953.66
2023-02-27T16:57:00.513Z,102949.19
2023-02-27T16:59:34.499Z,102953.69
2023-02-27T17:02:03.782Z,102944.31
2023-02-27T17:04:31.959Z,102941.06
2023-02-27T17:07:01.840Z,102951.31
2023-02-27T17:09:32.621Z,102951.81
2023-02-27T17:12:01.909Z,102959.38
2023-02-27T17:14:29.799Z,102953.84
2023-02-27T17:16:59.411Z,102954.56
2023-02-27T17:19:27.389Z,102957.28
2023-02-27T17:21:55.290Z,102956.13
2023-02-27T17:24:23.335Z,102944.03
2023-02-27T17:26:52.541Z,102945.72
2023-02-27T17:29:22.055Z,102956.56
2023-02-27T17:31:50.054Z,102939.91
2023-02-27T17:34:18.036Z,102945.03
2023-02-27T17:36:45.904Z,102952.56
2023-02-27T17:39:14.997Z,102947.44
2023-02-27T17:41:43.907Z,102939.66
2023-02-27T17:44:12.359Z,102928.03
2023-02-27T17:46:45.090Z,102938.41
2023-02-27T17:49:13.035Z,102940.94
2023-02-27T17:51:41.310Z,102939.66
2023-02-27T17:54:09.253Z,102942.06
2023-02-27T17:56:37.313Z,102949.47
2023-02-27T17:59:05.305Z,102950.72
2023-02-27T18:01:33.449Z,102948.91
2023-02-27T18:04:02.837Z,102942.38
2023-02-27T18:06:31.096Z,102944.66
2023-02-27T18:08:59.765Z,102943.97
2023-02-27T18:11:30.522Z,102952.72
2023-02-27T18:13:58.756Z,102953.88
2023-02-27T18:16:27.037Z,102954.28
2023-02-27T18:18:55.131Z,102955.03
2023-02-27T18:21:24.714Z,102943.72
2023-02-27T18:23:52.972Z,102943.84
2023-02-27T18:26:30.915Z,102940.13
2023-02-27T18:29:00.377Z,102940.41
2023-02-27T18:31:31.197Z,102943.06
2023-02-27T18:33:59.555Z,102954.34
2023-02-27T18:36:29.656Z,102957.44
2023-02-27T18:38:57.943Z,102960.59
2023-02-27T18:41:26.078Z,102951.09
2023-02-27T18:43:54.033Z,102960.31
2023-02-27T18:46:21.997Z,102956.16
2023-02-27T18:48:50.021Z,102965.22
2023-02-27T18:51:18.588Z,102973.03
2023-02-27T18:53:51.511Z,102978.44
2023-02-27T18:56:22.753Z,102979.94
2023-02-27T18:58:51.474Z,102974.94
2023-02-27T19:01:21.277Z,102979.06
2023-02-27T19:03:50.071Z,102990.88
2023-02-27T19:06:18.016Z,102982.97
2023-02-27T19:08:47.333Z,102983.53
2023-02-27T19:11:23.101Z,102985.91
2023-02-27T19:13:51.187Z,102990.44
2023-02-27T19:16:21.847Z,102990.44
2023-02-27T19:18:49.807Z,102985.50
2023-02-27T19:21:17.718Z,102987.41
2023-02-27T19:23:47.009Z,102985.31
2023-02-27T19:26:15.311Z,102987.81
2023-02-27T19:28:43.227Z,102991.69
2023-02-27T19:31:12.801Z,102994.25
2023-02-27T19:33:41.334Z,102993.00
2023-02-27T19:36:11.833Z,102996.66
2023-02-27T19:38:40.145Z,102993.09
2023-02-27T19:41:13.254Z,102987.00
2023-02-27T19:43:42.047Z,102994.09
2023-02-27T19:46:11.589Z,102996.69
2023-02-27T19:48:39.983Z,102995.00
2023-02-27T19:51:10.888Z,102990.56
2023-02-27T19:53:39.919Z,102994.63
2023-02-27T19:56:11.695Z,102993.78
2023-02-27T19:58:39.951Z,102993.66
2023-02-27T20:01:08.267Z,103002.53
2023-02-27T20:03:36.709Z,102999.22
2023-02-27T20:06:06.374Z,103001.91
2023-02-27T20:08:34.604Z,102998.25
2023-02-27T20:11:04.490Z,103004.38
2023-02-27T20:13:33.775Z,103001.53
2023-02-27T20:16:03.726Z,102998.97
2023-02-27T20:18:32.299Z,103000.88
2023-02-27T20:21:01.687Z,103003.72
2023-02-27T20:23:29.664Z,103008.44
2023-02-27T20:25:57.579Z,103005.84
2023-02-27T20:28:25.585Z,103005.94
2023-02-27T20:30:55.057Z,103007.78
2023-02-27T20:33:22.966Z,103008.50
2023-02-27T20:35:50.907Z,103013.75
2023-02-27T20:38:21.424Z,103019.69
2023-02-27T20:40:49.305Z,103020.41
2023-02-27T20:43:17.182Z,103022.13
2023-02-27T20:45:45.134Z,103018.56
2023-02-27T20:48:14.487Z,103024.03
2023-02-27T20:50:42.706Z,103022.31
2023-02-27T20:53:10.618Z,103024.44
2023-02-27T20:55:38.540Z,103028.06
2023-02-27T20:58:06.657Z,103020.94
2023-02-27T21:00:34.632Z,103014.38
2023-02-27T21:03:03.604Z,103008.09
2023-02-27T21:05:33.677Z,103016.94
2023-02-27T21:08:01.600Z,103015.03
2023-02-27T21:10:29.589Z,103020.47
2023-02-27T21:12:57.476Z,103016.22
2023-02-27T21:15:25.470Z,103024.44
2023-02-27T21:17:53.469Z,103021.84
2023-02-27T21:20:21.580Z,103022.16
2023-02-27T21:22:50.842Z,103020.31
2023-02-27T21:25:18.914Z,103019.44
2023-02-27T21:27:46.832Z,103026.75
2023-02-27T21:30:15.130Z,103023.38
2023-02-27T21:32:43.158Z,103025.44
2023-02-27T21:35:14.839Z,103022.88
2023-02-27T21:37:46.790Z,103021.94
2023-02-27T21:40:26.252Z,103033.19
2023-02-27T21:42:54.417Z,103029.56
2023-02-27T21:45:22.381Z,103032.19
2023-02-27T21:47:50.300Z,103021.44
2023-02-27T21:50:21.838Z,103026.84
2023-02-27T21:52:50.174Z,103030.31
2023-02-27T21:55:19.756Z,103027.72
2023-02-27T21:57:47.661Z,103026.94
2023-02-27T22:00:16.166Z,103026.00
2023-02-27T22:02:44.244Z,103018.81
2023-02-27T22:05:12.153Z,103015.06
2023-02-27T22:07:40.237Z,103020.16
2023-02-27T22:10:08.666Z,103012.13
2023-02-27T22:12:37.936Z,103019.25
2023-02-27T22:15:06.771Z,103012.94
2023-02-27T22:17:34.700Z,103009.66
2023-02-27T22:20:02.873Z,103004.41
2023-02-27T22:22:30.868Z,102995.28
2023-02-27T22:24:58.789Z,103001.41
2023-02-27T22:27:27.221Z,102996.78
2023-02-27T22:29:56.646Z,103006.53
2023-02-27T22:32:24.763Z,103006.59
2023-02-27T22:34:52.668Z,103006.59
2023-02-27T22:37:20.595Z,103007.81
2023-02-27T22:39:48.469Z,103001.69
2023-02-27T22:42:16.381Z,103003.59
2023-02-27T22:44:44.659Z,103001.75
2023-02-27T22:47:13.974Z,103000.63
2023-02-27T22:49:41.864Z,103002.38
2023-02-27T22:52:09.984Z,103004.03
2023-02-27T22:54:37.883Z,103004.13
2023-02-27T22:57:05.942Z,103005.75
2023-02-27T22:59:33.831Z,103006.69
2023-02-27T23:02:01.989Z,103009.31
2023-02-27T23:04:31.272Z,103020.03
2023-02-27T23:06:59.187Z,103012.22
2023-02-27T23:09:27.397Z,103014.84
2023-02-27T23:11:55.650Z,103019.25
2023-02-27T23:14:23.956Z,103022.81
2023-02-27T23:16:51.973Z,103034.44
2023-02-27T23:19:21.480Z,103031.97
2023-02-27T23:21:50.963Z,103027.34
2023-02-27T23:24:20.380Z,103030.03
2023-02-27T23:26:50.511Z,103025.63
2023-02-27T23:29:18.547Z,103022.88
2023-02-27T23:31:46.681Z,103028.25
2023-02-27T23:34:14.767Z,103027.41
2023-02-27T23:36:42.676Z,103032.16
2023-02-27T23:39:11.976Z,103024.97
2023-02-27T23:41:39.885Z,103027.69
2023-02-27T23:44:24.936Z,103032.28
2023-02-27T23:46:52.853Z,103033.19
2023-02-27T23:49:20.904Z,103042.00
2023-02-27T23:51:48.827Z,103034.88
2023-02-27T23:54:18.164Z,103031.53
2023-02-27T23:56:47.984Z,103024.47
2023-02-27T23:59:15.920Z,103030.72
